< < Back
Terminal Aerodrome Forecast


Current Version              Previous Versions:   1  2  3  4  5  6  7  8  9  

Terminal Aerodrome Forecast

076
FTUS42 KCAE 220800 AAA
TAFCAE
TAF AMD
KCAE 220833Z 2209/2306 05006KT 3SM -RA BR OVC007
     FM221300 04006KT 4SM -DZ BR OVC007
     FM221800 04005KT 4SM -DZ BR OVC012
     FM230200 05003KT 2SM BR OVC007=

Latest METAR

181
SAUS80 KWBC 221600 CCA
MTRCAE
METAR KCAE 221556Z 04006KT 6SM BR OVC006 08/06 A3009 RMK AO2 SLP191
T00780061


USA.gov is the U.S. government's official web portal to all federal, state and local government web resources and services.